createdAt,value
2022-09-06T00:00:39.825Z,3.80
2022-09-06T00:03:11.703Z,3.90
2022-09-06T00:05:44.544Z,4.30
2022-09-06T00:08:15.644Z,4.10
2022-09-06T00:10:46.449Z,3.10
2022-09-06T00:13:17.776Z,3.40
2022-09-06T00:15:48.998Z,3.70
2022-09-06T00:18:20.119Z,4.10
2022-09-06T00:20:51.255Z,3.90
2022-09-06T00:23:22.205Z,3.80
2022-09-06T00:25:53.151Z,3.40
2022-09-06T00:28:24.142Z,3.00
2022-09-06T00:30:55.030Z,3.20
2022-09-06T00:33:26.021Z,3.90
2022-09-06T00:36:02.727Z,3.70
2022-09-06T00:38:34.543Z,3.70
2022-09-06T00:41:05.566Z,3.40
2022-09-06T00:43:36.885Z,3.70
2022-09-06T00:46:09.682Z,4.10
2022-09-06T00:48:42.624Z,4.30
2022-09-06T00:51:15.239Z,4.00
2022-09-06T00:53:46.788Z,3.80
2022-09-06T00:56:18.615Z,3.70
2022-09-06T00:58:50.628Z,4.20
2022-09-06T01:01:21.457Z,3.50
2022-09-06T01:03:52.766Z,3.20
2022-09-06T01:06:27.812Z,3.90
2022-09-06T01:09:12.520Z,3.80
2022-09-06T01:12:00.076Z,4.10
2022-09-06T01:14:43.724Z,3.80
2022-09-06T01:17:25.961Z,3.70
2022-09-06T01:20:22.373Z,3.10
2022-09-06T01:23:30.853Z,3.90
2022-09-06T01:26:26.074Z,4.30
2022-09-06T01:28:58.395Z,4.00
2022-09-06T01:31:35.761Z,3.40
2022-09-06T01:34:21.756Z,4.30
2022-09-06T01:37:09.927Z,4.30
2022-09-06T01:39:42.771Z,3.90
2022-09-06T01:42:19.326Z,4.40
2022-09-06T01:44:54.573Z,4.10
2022-09-06T01:47:39.839Z,3.90
2022-09-06T01:50:36.633Z,4.10
2022-09-06T01:53:19.303Z,4.20
2022-09-06T01:55:57.000Z,4.00
2022-09-06T01:58:48.787Z,4.40
2022-09-06T02:01:27.236Z,4.80
2022-09-06T02:04:07.877Z,4.30
2022-09-06T02:06:43.596Z,4.20
2022-09-06T02:09:18.886Z,4.30
2022-09-06T02:11:53.139Z,4.50
2022-09-06T02:14:31.148Z,4.00
2022-09-06T02:17:04.124Z,4.50
2022-09-06T02:19:41.023Z,4.40
2022-09-06T02:22:16.844Z,4.40
2022-09-06T02:24:52.119Z,4.30
2022-09-06T02:27:25.319Z,4.20
2022-09-06T02:29:56.393Z,4.50
2022-09-06T02:32:30.766Z,4.60
2022-09-06T02:35:08.849Z,4.70
2022-09-06T02:37:40.288Z,4.40
2022-09-06T02:40:13.615Z,4.30
2022-09-06T02:42:44.586Z,4.70
2022-09-06T02:45:15.791Z,4.30
2022-09-06T02:47:46.720Z,4.40
2022-09-06T02:50:18.171Z,4.30
2022-09-06T02:53:01.458Z,4.90
2022-09-06T02:58:02.122Z,4.60
2022-09-06T03:00:32.923Z,4.70
2022-09-06T03:03:03.767Z,4.50
2022-09-06T03:05:34.968Z,4.40
2022-09-06T03:08:09.008Z,4.50
2022-09-06T03:10:40.366Z,4.40
2022-09-06T03:13:11.740Z,4.40
2022-09-06T03:15:42.649Z,3.90
2022-09-06T03:18:15.014Z,3.60
2022-09-06T03:20:46.096Z,3.90
2022-09-06T03:23:17.279Z,3.90
2022-09-06T03:25:48.567Z,3.30
2022-09-06T03:28:19.942Z,4.00
2022-09-06T03:30:52.334Z,4.20
2022-09-06T03:33:23.841Z,4.20
2022-09-06T03:35:57.773Z,4.40
2022-09-06T03:38:30.239Z,4.10
2022-09-06T03:41:01.376Z,4.40
2022-09-06T03:43:32.583Z,4.40
2022-09-06T03:46:03.672Z,4.40
2022-09-06T03:48:34.599Z,4.50
2022-09-06T03:51:05.693Z,4.70
2022-09-06T03:53:36.744Z,4.60
2022-09-06T03:56:08.367Z,5.90
2022-09-06T03:58:39.238Z,5.30
2022-09-06T04:01:12.598Z,7.60
2022-09-06T04:03:43.905Z,8.30
2022-09-06T04:06:14.724Z,6.00
2022-09-06T04:08:45.661Z,5.10
2022-09-06T04:11:17.478Z,6.40
2022-09-06T04:13:48.973Z,18.50
2022-09-06T04:16:19.942Z,5.60
2022-09-06T04:18:51.054Z,4.10
2022-09-06T04:21:22.019Z,4.40
2022-09-06T04:23:53.185Z,4.10
2022-09-06T04:26:24.115Z,4.30
2022-09-06T04:28:55.044Z,3.40
2022-09-06T04:31:26.348Z,3.40
2022-09-06T04:33:57.305Z,4.10
2022-09-06T04:36:29.671Z,4.70
2022-09-06T04:39:00.426Z,3.70
2022-09-06T04:41:32.391Z,3.70
2022-09-06T04:44:03.558Z,3.50
2022-09-06T04:46:34.473Z,3.20
2022-09-06T04:49:05.402Z,4.20
2022-09-06T04:51:37.569Z,4.60
2022-09-06T04:54:08.346Z,4.70
2022-09-06T04:56:40.191Z,4.10
2022-09-06T04:59:11.408Z,3.80
2022-09-06T05:01:42.790Z,4.70
2022-09-06T05:04:14.004Z,4.40
2022-09-06T05:06:45.561Z,5.30
2022-09-06T05:09:16.561Z,4.00
2022-09-06T05:11:47.408Z,4.50
2022-09-06T05:14:18.394Z,4.80
2022-09-06T05:16:50.263Z,4.70
2022-09-06T05:19:21.511Z,4.70
2022-09-06T05:21:53.601Z,4.80
2022-09-06T05:24:24.722Z,4.60
2022-09-06T05:26:55.701Z,4.90
2022-09-06T05:29:30.404Z,3.90
2022-09-06T05:32:01.682Z,4.30
2022-09-06T05:34:32.682Z,4.80
2022-09-06T05:37:03.798Z,4.50
2022-09-06T05:39:34.949Z,5.20
2022-09-06T05:42:06.991Z,5.30
2022-09-06T05:44:38.521Z,4.90
2022-09-06T05:47:09.884Z,4.40
2022-09-06T05:49:40.884Z,4.30
2022-09-06T05:52:11.834Z,3.80
2022-09-06T05:54:42.807Z,4.30
2022-09-06T05:57:13.949Z,4.50
2022-09-06T05:59:44.720Z,4.10
2022-09-06T06:02:15.589Z,3.60
2022-09-06T06:04:47.351Z,4.10
2022-09-06T06:07:18.450Z,3.80
2022-09-06T06:09:49.722Z,3.50
2022-09-06T06:12:20.838Z,3.60
2022-09-06T06:14:51.778Z,4.30
2022-09-06T06:17:23.022Z,4.10
2022-09-06T06:19:54.822Z,4.00
2022-09-06T06:22:25.706Z,3.60
2022-09-06T06:24:57.032Z,4.10
2022-09-06T06:27:27.990Z,3.90
2022-09-06T06:29:59.076Z,3.60
2022-09-06T06:32:30.143Z,3.30
2022-09-06T06:35:01.032Z,3.70
2022-09-06T06:37:33.900Z,4.30
2022-09-06T06:40:06.159Z,4.40
2022-09-06T06:42:36.998Z,3.70
2022-09-06T06:45:09.856Z,3.60
2022-09-06T06:47:40.720Z,3.50
2022-09-06T06:50:13.064Z,3.80
2022-09-06T06:52:44.046Z,3.50
2022-09-06T06:55:15.200Z,3.40
2022-09-06T06:57:46.206Z,2.90
2022-09-06T07:00:17.951Z,3.20
2022-09-06T07:02:48.976Z,3.30
2022-09-06T07:08:11.737Z,2.90
2022-09-06T07:10:42.535Z,3.50
2022-09-06T07:13:14.132Z,3.10
2022-09-06T07:15:45.276Z,2.80
2022-09-06T07:18:18.143Z,2.90
2022-09-06T07:26:33.029Z,3.40
2022-09-06T07:29:05.776Z,3.40
2022-09-06T07:34:30.257Z,3.30
2022-09-06T07:37:01.413Z,3.10
2022-09-06T07:39:33.584Z,3.30
2022-09-06T07:42:04.739Z,3.80
2022-09-06T07:44:35.863Z,3.00
2022-09-06T07:55:41.322Z,3.30
2022-09-06T07:58:12.303Z,3.40
2022-09-06T08:00:43.445Z,3.00
2022-09-06T08:03:14.587Z,3.50
2022-09-06T08:11:30.210Z,3.00
2022-09-06T08:14:02.819Z,3.00
2022-09-06T08:16:35.180Z,3.20
2022-09-06T08:19:09.093Z,2.90
2022-09-06T08:21:40.451Z,3.10
2022-09-06T08:24:12.462Z,2.90
2022-09-06T08:26:43.533Z,2.90
2022-09-06T08:29:15.183Z,2.90
2022-09-06T08:31:47.669Z,2.60
2022-09-06T08:34:19.009Z,3.00
2022-09-06T08:36:50.148Z,2.70
2022-09-06T08:39:21.172Z,2.70
2022-09-06T08:41:57.559Z,2.50
2022-09-06T08:47:24.018Z,2.90
2022-09-06T08:50:02.323Z,3.00
2022-09-06T08:55:52.926Z,2.70
2022-09-06T08:58:38.714Z,2.40
2022-09-06T09:01:15.779Z,2.50
2022-09-06T09:03:48.073Z,2.40
2022-09-06T09:06:19.077Z,2.60
2022-09-06T09:09:01.730Z,2.70
2022-09-06T09:11:33.912Z,2.60
2022-09-06T09:14:12.736Z,2.60
2022-09-06T09:16:44.235Z,2.70
2022-09-06T09:19:16.435Z,2.40
2022-09-06T09:21:47.952Z,2.70
2022-09-06T09:24:18.951Z,2.70
2022-09-06T09:26:55.351Z,2.60
2022-09-06T09:29:29.485Z,2.60
2022-09-06T09:32:02.124Z,2.50
2022-09-06T09:34:35.333Z,2.40
2022-09-06T09:40:16.749Z,2.20
2022-09-06T09:42:47.707Z,2.50
2022-09-06T09:45:30.278Z,2.60
2022-09-06T09:48:20.874Z,2.60
2022-09-06T09:50:52.115Z,2.60
2022-09-06T09:53:26.263Z,2.30
2022-09-06T09:56:00.598Z,2.40
2022-09-06T09:58:37.025Z,2.20
2022-09-06T10:01:22.978Z,2.50
2022-09-06T10:07:08.548Z,2.70
2022-09-06T10:09:43.744Z,2.00
2022-09-06T10:12:20.084Z,2.30
2022-09-06T10:14:53.710Z,2.90
2022-09-06T10:17:32.833Z,2.70
2022-09-06T10:20:08.272Z,2.50
2022-09-06T10:22:50.498Z,2.80
2022-09-06T10:25:48.950Z,2.50
2022-09-06T10:28:36.689Z,3.30
2022-09-06T10:31:26.228Z,3.00
2022-09-06T10:34:07.009Z,3.10
2022-09-06T10:36:41.463Z,2.40
2022-09-06T10:39:30.115Z,2.90
2022-09-06T10:42:08.403Z,2.80
2022-09-06T10:44:55.842Z,2.60
2022-09-06T10:47:35.019Z,2.90
2022-09-06T10:50:07.437Z,2.40
2022-09-06T10:52:44.975Z,2.80
2022-09-06T10:55:19.532Z,2.80
2022-09-06T11:00:48.860Z,3.00
2022-09-06T11:06:24.293Z,3.20
2022-09-06T11:09:04.006Z,2.90
2022-09-06T11:11:45.560Z,2.70
2022-09-06T11:14:16.804Z,2.70
2022-09-06T11:16:54.063Z,3.10
2022-09-06T11:19:29.676Z,2.80
2022-09-06T11:22:43.240Z,2.50
2022-09-06T11:25:48.545Z,2.90
2022-09-06T11:28:27.337Z,3.00
2022-09-06T11:31:00.094Z,2.90
2022-09-06T11:33:35.538Z,3.00
2022-09-06T11:36:29.829Z,3.50
2022-09-06T11:39:04.086Z,2.70
2022-09-06T11:41:38.107Z,3.10
2022-09-06T11:44:10.344Z,2.90
2022-09-06T11:47:04.027Z,2.80
2022-09-06T11:49:39.248Z,2.70
2022-09-06T11:52:40.834Z,2.70
2022-09-06T11:55:19.877Z,3.40
2022-09-06T11:57:58.372Z,3.10
2022-09-06T12:00:29.805Z,2.70
2022-09-06T12:06:19.930Z,2.80
2022-09-06T12:08:52.728Z,2.80
2022-09-06T12:11:43.946Z,3.10
2022-09-06T12:14:32.067Z,2.70
2022-09-06T12:17:46.807Z,3.00
2022-09-06T12:21:01.544Z,3.00
2022-09-06T12:23:45.059Z,3.80
2022-09-06T12:26:36.022Z,3.30
2022-09-06T12:29:12.868Z,3.40
2022-09-06T12:31:45.613Z,2.90
2022-09-06T12:34:22.714Z,3.20
2022-09-06T12:37:02.399Z,3.00
2022-09-06T12:39:33.464Z,3.10
2022-09-06T12:42:06.979Z,3.00
2022-09-06T12:44:43.277Z,3.00
2022-09-06T12:47:22.289Z,3.30
2022-09-06T12:50:11.395Z,3.10
2022-09-06T12:52:50.940Z,2.70
2022-09-06T12:55:25.730Z,2.80
2022-09-06T12:57:58.947Z,3.10
2022-09-06T13:00:35.546Z,2.90
2022-09-06T13:03:21.942Z,2.80
2022-09-06T13:05:54.501Z,2.60
2022-09-06T13:08:33.323Z,2.60
2022-09-06T13:11:05.282Z,2.50
2022-09-06T13:13:36.354Z,2.70
2022-09-06T13:16:08.314Z,3.20
2022-09-06T13:18:40.134Z,3.00
2022-09-06T13:21:14.781Z,3.00
2022-09-06T13:23:47.927Z,3.00
2022-09-06T13:26:36.523Z,2.60
2022-09-06T13:29:22.742Z,2.60
2022-09-06T13:31:55.925Z,2.80
2022-09-06T13:34:31.047Z,2.70
2022-09-06T13:37:06.390Z,2.70
2022-09-06T13:39:39.405Z,2.70
2022-09-06T13:42:12.491Z,3.00
2022-09-06T13:44:44.327Z,2.60
2022-09-06T13:47:15.280Z,2.60
2022-09-06T13:49:46.557Z,2.70
2022-09-06T13:52:18.332Z,2.50
2022-09-06T13:54:49.227Z,2.20
2022-09-06T13:57:24.175Z,2.80
2022-09-06T13:59:55.922Z,2.60
2022-09-06T14:02:27.004Z,2.40
2022-09-06T14:04:58.279Z,2.40
2022-09-06T14:07:29.337Z,2.50
2022-09-06T14:10:03.188Z,2.80
2022-09-06T14:12:34.804Z,2.50
2022-09-06T14:15:08.331Z,2.70
2022-09-06T14:17:39.405Z,2.50
2022-09-06T14:20:12.177Z,2.60
2022-09-06T14:22:43.020Z,2.70
2022-09-06T14:25:13.976Z,2.30
2022-09-06T14:27:44.850Z,2.80
2022-09-06T14:30:16.682Z,2.80
2022-09-06T14:32:47.665Z,3.10
2022-09-06T14:35:19.021Z,2.80
2022-09-06T14:37:49.845Z,2.70
2022-09-06T14:40:21.140Z,2.70
2022-09-06T14:42:52.215Z,2.40
2022-09-06T14:45:23.270Z,2.50
2022-09-06T14:47:54.491Z,2.70
2022-09-06T14:50:25.580Z,2.60
2022-09-06T14:52:56.698Z,2.60
2022-09-06T14:55:28.223Z,2.60
2022-09-06T14:58:00.083Z,2.60
2022-09-06T15:00:32.990Z,2.50
2022-09-06T15:03:04.030Z,2.70
2022-09-06T15:05:35.176Z,2.30
2022-09-06T15:08:06.959Z,2.90
2022-09-06T15:10:38.040Z,2.70
2022-09-06T15:13:09.032Z,2.70
2022-09-06T15:15:40.508Z,2.70
2022-09-06T15:18:11.999Z,2.40
2022-09-06T15:20:43.515Z,2.70
2022-09-06T15:23:24.746Z,2.40
2022-09-06T15:25:56.342Z,2.50
2022-09-06T15:28:27.527Z,2.90
2022-09-06T15:30:58.585Z,3.00
2022-09-06T15:33:33.287Z,2.70
2022-09-06T15:36:07.342Z,2.70
2022-09-06T15:38:41.489Z,2.60
2022-09-06T15:41:14.819Z,2.30
2022-09-06T15:43:48.091Z,2.40
2022-09-06T15:46:22.211Z,2.90
2022-09-06T15:48:54.172Z,2.80
2022-09-06T15:51:25.145Z,2.40
2022-09-06T15:53:56.172Z,2.70
2022-09-06T15:56:27.558Z,3.10
2022-09-06T15:58:59.231Z,2.90
2022-09-06T16:01:34.112Z,2.80
2022-09-06T16:04:07.260Z,2.90
2022-09-06T16:06:42.247Z,2.50
2022-09-06T16:09:15.559Z,2.80
2022-09-06T16:11:46.830Z,2.70
2022-09-06T16:14:18.632Z,2.60
2022-09-06T16:16:49.798Z,2.60
2022-09-06T16:19:20.904Z,2.70
2022-09-06T16:21:51.895Z,3.20
2022-09-06T16:24:23.158Z,2.50
2022-09-06T16:26:56.596Z,3.00
2022-09-06T16:29:28.002Z,3.40
2022-09-06T16:32:00.704Z,3.20
2022-09-06T16:34:31.644Z,2.90
2022-09-06T16:37:07.894Z,3.70
2022-09-06T16:39:39.009Z,3.00
2022-09-06T16:42:10.279Z,3.10
2022-09-06T16:44:41.377Z,3.20
2022-09-06T16:47:15.993Z,2.90
2022-09-06T16:49:47.596Z,2.60
2022-09-06T16:52:18.655Z,2.70
2022-09-06T16:54:49.762Z,2.70
2022-09-06T16:57:21.699Z,2.90
2022-09-06T16:59:53.544Z,2.70
2022-09-06T17:02:24.632Z,2.70
2022-09-06T17:04:55.890Z,2.70
2022-09-06T17:07:26.948Z,3.00
2022-09-06T17:09:58.178Z,2.90
2022-09-06T17:12:30.902Z,2.70
2022-09-06T17:15:02.131Z,2.90
2022-09-06T17:17:33.269Z,2.60
2022-09-06T17:20:05.067Z,2.90
2022-09-06T17:22:36.438Z,3.00
2022-09-06T17:25:09.009Z,3.00
2022-09-06T17:27:40.047Z,2.80
2022-09-06T17:30:13.023Z,2.80
2022-09-06T17:32:43.881Z,2.80
2022-09-06T17:35:14.871Z,2.80
2022-09-06T17:37:45.985Z,2.50
2022-09-06T17:40:16.971Z,3.00
2022-09-06T17:42:47.847Z,2.70
2022-09-06T17:45:18.998Z,2.80
2022-09-06T17:47:50.165Z,3.00
2022-09-06T17:50:21.707Z,2.60
2022-09-06T17:52:54.392Z,3.00
2022-09-06T17:55:26.875Z,2.70
2022-09-06T17:57:58.474Z,2.90
2022-09-06T18:00:29.465Z,3.00
2022-09-06T18:03:00.522Z,2.90
2022-09-06T18:05:31.975Z,2.80
2022-09-06T18:08:03.229Z,3.00
2022-09-06T18:10:38.480Z,2.80
2022-09-06T18:13:09.506Z,2.80
2022-09-06T18:15:42.641Z,2.70
2022-09-06T18:18:13.446Z,3.10
2022-09-06T18:20:45.539Z,2.70
2022-09-06T18:23:16.636Z,2.70
2022-09-06T18:25:59.028Z,3.00
2022-09-06T18:28:30.943Z,3.00
2022-09-06T18:31:05.396Z,3.10
2022-09-06T18:33:37.043Z,2.90
2022-09-06T18:36:10.055Z,3.00
2022-09-06T18:38:42.998Z,3.10
2022-09-06T18:41:30.299Z,2.90
2022-09-06T18:44:03.663Z,2.80
2022-09-06T18:46:36.265Z,2.90
2022-09-06T18:49:07.351Z,3.30
2022-09-06T18:51:42.418Z,2.70
2022-09-06T18:54:13.623Z,3.10
2022-09-06T18:56:45.461Z,2.70
2022-09-06T18:59:17.162Z,3.00
2022-09-06T19:01:48.677Z,3.00
2022-09-06T19:04:20.363Z,2.80
2022-09-06T19:06:51.588Z,3.20
2022-09-06T19:09:23.424Z,2.60
2022-09-06T19:11:54.543Z,2.60
2022-09-06T19:14:25.794Z,2.80
2022-09-06T19:16:57.062Z,2.50
2022-09-06T19:19:28.135Z,3.00
2022-09-06T19:21:59.513Z,2.70
2022-09-06T19:24:30.428Z,2.70
2022-09-06T19:27:01.917Z,3.40
2022-09-06T19:29:33.373Z,3.00
2022-09-06T19:32:04.865Z,2.50
2022-09-06T19:34:35.994Z,2.90
2022-09-06T19:37:07.072Z,2.80
2022-09-06T19:39:38.084Z,2.90
2022-09-06T19:42:09.391Z,2.80
2022-09-06T19:44:40.557Z,2.50
2022-09-06T19:47:12.433Z,2.40
2022-09-06T19:49:43.461Z,2.80
2022-09-06T19:52:14.478Z,2.80
2022-09-06T19:54:45.533Z,3.00
2022-09-06T19:57:16.775Z,3.20
2022-09-06T19:59:48.023Z,2.70
2022-09-06T20:02:19.453Z,3.00
2022-09-06T20:04:51.255Z,3.50
2022-09-06T20:07:22.398Z,3.10
2022-09-06T20:09:53.852Z,3.20
2022-09-06T20:12:25.066Z,3.10
2022-09-06T20:14:57.747Z,3.50
2022-09-06T20:17:33.688Z,3.20
2022-09-06T20:20:05.400Z,3.10
2022-09-06T20:22:36.331Z,3.00
2022-09-06T20:25:08.776Z,3.30
2022-09-06T20:27:44.287Z,3.30
2022-09-06T20:30:16.104Z,3.40
2022-09-06T20:32:47.048Z,3.40
2022-09-06T20:35:18.446Z,3.20
2022-09-06T20:37:50.635Z,3.50
2022-09-06T20:40:21.716Z,3.40
2022-09-06T20:42:53.152Z,3.10
2022-09-06T20:45:25.648Z,3.60
2022-09-06T20:47:57.731Z,3.30
2022-09-06T20:50:29.238Z,3.50
2022-09-06T20:53:00.583Z,4.10
2022-09-06T20:55:32.163Z,4.00
2022-09-06T20:58:03.092Z,3.40
2022-09-06T21:00:34.570Z,3.40
2022-09-06T21:03:05.576Z,3.90
2022-09-06T21:05:36.764Z,3.60
2022-09-06T21:08:07.918Z,3.60
2022-09-06T21:10:39.856Z,3.60
2022-09-06T21:13:10.887Z,3.70
2022-09-06T21:15:42.852Z,3.30
2022-09-06T21:18:14.030Z,3.80
2022-09-06T21:20:44.924Z,4.10
2022-09-06T21:23:16.003Z,4.10
2022-09-06T21:25:54.982Z,3.80
2022-09-06T21:28:26.256Z,3.50
2022-09-06T21:31:06.266Z,3.60
2022-09-06T21:33:39.194Z,3.70
2022-09-06T21:36:12.571Z,3.70
2022-09-06T21:38:46.608Z,3.70
2022-09-06T21:41:19.819Z,3.80
2022-09-06T21:43:54.908Z,4.00
2022-09-06T21:46:32.317Z,3.30
2022-09-06T21:49:07.229Z,3.70
2022-09-06T21:51:39.015Z,3.70
2022-09-06T21:54:10.789Z,4.10
2022-09-06T21:56:42.185Z,3.50
2022-09-06T21:59:13.268Z,3.70
2022-09-06T22:01:45.326Z,4.00
2022-09-06T22:04:16.674Z,4.10
2022-09-06T22:06:47.756Z,3.60
2022-09-06T22:09:18.871Z,3.80
2022-09-06T22:11:49.724Z,4.00
2022-09-06T22:14:20.634Z,4.10
2022-09-06T22:16:52.074Z,3.60
2022-09-06T22:19:22.886Z,3.70
2022-09-06T22:21:55.999Z,4.00
2022-09-06T22:24:27.162Z,4.00
2022-09-06T22:26:58.284Z,4.10
2022-09-06T22:29:30.344Z,3.80
2022-09-06T22:32:01.417Z,3.50
2022-09-06T22:34:32.667Z,3.50
2022-09-06T22:37:03.729Z,3.90
2022-09-06T22:39:34.889Z,3.90
2022-09-06T22:42:06.173Z,3.70
2022-09-06T22:44:37.340Z,3.90
2022-09-06T22:47:09.195Z,3.30
2022-09-06T22:49:40.124Z,3.40
2022-09-06T22:52:11.923Z,3.60
2022-09-06T22:54:42.926Z,3.60
2022-09-06T22:57:14.265Z,3.80
2022-09-06T22:59:45.249Z,3.70
2022-09-06T23:02:16.152Z,3.50
2022-09-06T23:04:47.354Z,3.70
2022-09-06T23:07:18.414Z,3.50
2022-09-06T23:09:49.488Z,3.80
2022-09-06T23:12:20.418Z,3.70
2022-09-06T23:14:51.338Z,3.60
2022-09-06T23:17:22.292Z,3.90
2022-09-06T23:19:53.093Z,3.90
2022-09-06T23:22:24.214Z,3.40
2022-09-06T23:24:55.161Z,3.80
2022-09-06T23:27:26.395Z,3.50
2022-09-06T23:29:57.809Z,3.70
2022-09-06T23:32:29.096Z,3.40
2022-09-06T23:35:00.257Z,3.70
2022-09-06T23:37:31.650Z,3.30
2022-09-06T23:40:07.034Z,3.40
2022-09-06T23:42:39.930Z,3.70
2022-09-06T23:45:12.371Z,3.80
2022-09-06T23:47:43.613Z,3.90
2022-09-06T23:50:15.370Z,3.90
2022-09-06T23:52:46.618Z,3.30
2022-09-06T23:55:17.767Z,3.60
2022-09-06T23:57:48.823Z,3.60
